Lipscomb, Texas
Current Conditions -  °F | °C
As of 9:55 PM on Saturday 22 Nov 2014 (Local Time) from KHHF Reporting Station
Overcast Overcast  
Wind Chill: 53°   Ceiling: 600
Heat Index: 53°   Visibility: 10mi
Dew Point: 52°   Wind: 16mph
Humidity: 95%   Direction: 200°SSW
Pressure: 29.64"   Gusts: 29mph
Location:  36.23°N, 100.27°W
Report Text: KHHF 230355Z AUTO 20014G25KT 10SM OVC006 12/11 A2964 RMK AO2 T01170110
Loading
Personal Weather Stations






























Interactive Weather Map New forecast layout! Learn more

10-Day Weather Forecast

Advertisements
Track Severe Weather on mobile